Time;durP1;ratioP1;P1;durP2;ratioP2;P2;SDS_P1;SDS_P2;PMS_P1;PMS_P2;Temp;Humidity;BMP_temperature;BMP_pressure;BME280_temperature;BME280_humidity;BME280_pressure;Samples;Min_cycle;Max_cycle;Signal;HPM_P1;HPM_P2
2022/01/26 00:00:02;;;;;;;3.67;1.50;;;3.70;99.90;;;;;;5038057;28;20131;-87
2022/01/26 00:08:01;;;;;;;1.13;1.02;;;3.70;99.90;;;;;;5037215;28;20088;-87
2022/01/26 00:10:27;;;;;;;3.05;1.73;;;3.70;99.90;;;;;;5020884;28;20401;-87
2022/01/26 00:12:55;;;;;;;2.72;0.95;;;3.90;99.90;;;;;;5020716;28;20083;-87
2022/01/26 00:15:24;;;;;;;1.35;0.73;;;3.70;99.90;;;;;;5020355;28;20063;-87
2022/01/26 00:17:54;;;;;;;0.47;0.47;;;3.70;99.90;;;;;;5020655;28;20048;-87
2022/01/26 00:20:33;;;;;;;0.73;0.47;;;3.60;99.90;;;;;;5019991;28;20163;-87
2022/01/26 00:28:09;;;;;;;1.08;0.90;;;3.60;99.90;;;;;;5036923;28;20048;-87
2022/01/26 00:38:53;;;;;;;1.80;0.52;;;3.60;99.90;;;;;;5114950;28;20039;-87
2022/01/26 00:41:37;;;;;;;5.60;0.65;;;3.70;99.90;;;;;;5097323;28;20047;-87
2022/01/26 00:44:07;;;;;;;1.90;1.52;;;3.60;99.90;;;;;;5097822;28;20134;-87
2022/01/26 00:46:34;;;;;;;9.48;1.27;;;3.50;99.90;;;;;;5097784;28;20066;-87
2022/01/26 00:49:00;;;;;;;0.45;0.45;;;3.60;99.90;;;;;;5097729;28;20104;-87
2022/01/26 00:51:29;;;;;;;2.08;1.10;;;3.50;99.90;;;;;;5114614;28;20044;-87
2022/01/26 00:54:05;;;;;;;2.63;1.52;;;3.50;99.90;;;;;;5114323;28;20040;-87
2022/01/26 00:56:31;;;;;;;6.38;2.58;;;3.40;99.90;;;;;;5114641;28;20044;-87
2022/01/26 00:59:01;;;;;;;1.85;1.00;;;3.40;99.90;;;;;;5114420;28;20077;-87
2022/01/26 01:01:27;;;;;;;5.22;1.60;;;3.40;99.90;;;;;;5097586;28;20035;-87
2022/01/26 01:03:53;;;;;;;1.15;0.90;;;3.60;99.90;;;;;;5095882;28;20464;-87
2022/01/26 01:06:26;;;;;;;4.72;2.08;;;3.40;99.90;;;;;;5097402;28;20048;-87
2022/01/26 01:08:58;;;;;;;2.03;0.98;;;3.40;99.90;;;;;;5097743;28;20439;-87
2022/01/26 01:11:26;;;;;;;7.18;1.58;;;3.50;99.90;;;;;;5113921;28;20543;-87
2022/01/26 01:13:54;;;;;;;2.75;1.35;;;3.70;99.90;;;;;;5114163;28;20131;-87
2022/01/26 01:16:22;;;;;;;0.85;0.57;;;3.50;99.90;;;;;;5097687;28;20044;-87
2022/01/26 01:33:02;;;;;;;0.90;0.73;;;3.30;99.90;;;;;;4976653;28;20170;-87
2022/01/26 01:35:30;;;;;;;0.88;0.88;;;3.30;99.90;;;;;;4976751;28;20395;-87
2022/01/26 01:37:57;;;;;;;6.43;0.90;;;3.30;99.90;;;;;;4976939;28;20544;-87
2022/01/26 01:40:22;;;;;;;2.38;1.88;;;3.30;99.90;;;;;;4976650;28;20047;-87
2022/01/26 01:42:48;;;;;;;0.38;0.38;;;3.30;99.90;;;;;;4976205;28;20047;-87
2022/01/26 01:45:16;;;;;;;7.43;2.50;;;3.30;99.90;;;;;;4976410;28;20038;-87
2022/01/26 01:47:42;;;;;;;9.73;1.17;;;3.30;99.90;;;;;;4976573;28;20387;-87
2022/01/26 01:50:11;;;;;;;1.58;1.48;;;3.30;99.90;;;;;;4976831;28;20061;-87
2022/01/26 01:52:37;;;;;;;0.63;0.63;;;3.30;99.90;;;;;;4976697;28;20483;-87
2022/01/26 01:55:06;;;;;;;0.30;0.30;;;3.30;99.90;;;;;;4976422;28;20129;-87
2022/01/26 01:57:32;;;;;;;4.57;0.98;;;3.30;99.90;;;;;;4976144;28;20146;-87
2022/01/26 01:59:58;;;;;;;1.85;1.25;;;3.30;99.90;;;;;;4960215;28;20506;-87
2022/01/26 02:02:23;;;;;;;6.10;2.95;;;3.20;99.90;;;;;;4976189;28;20141;-88
2022/01/26 02:04:49;;;;;;;3.20;2.20;;;3.30;99.90;;;;;;4976440;28;20038;-87
2022/01/26 02:07:15;;;;;;;6.75;2.30;;;3.10;99.90;;;;;;5012377;28;20482;-87
2022/01/26 02:09:41;;;;;;;2.17;1.55;;;3.10;99.90;;;;;;5085190;28;20138;-87
2022/01/26 02:12:16;;;;;;;0.32;0.32;;;3.20;99.90;;;;;;5096716;28;20079;-87
2022/01/26 02:14:48;;;;;;;2.83;1.25;;;3.20;99.90;;;;;;5113147;28;20482;-87
2022/01/26 02:50:56;;;;;;;3.78;1.35;;;3.20;99.90;;;;;;5054750;28;20084;-87
2022/01/26 02:55:51;;;;;;;9.35;2.05;;;3.20;99.90;;;;;;5116942;28;20061;-87
2022/01/26 03:01:16;;;;;;;0.80;0.75;;;3.30;99.90;;;;;;5116667;28;20044;-87
2022/01/26 03:03:50;;;;;;;5.18;1.00;;;3.10;99.90;;;;;;5116913;28;20441;-88
2022/01/26 03:06:21;;;;;;;1.45;1.10;;;3.10;99.90;;;;;;5099994;28;20138;-87
2022/01/26 03:08:54;;;;;;;2.75;1.55;;;3.10;99.90;;;;;;5099458;28;20116;-87
2022/01/26 03:11:21;;;;;;;15.52;2.05;;;3.10;99.90;;;;;;5117042;28;20087;-87
2022/01/26 03:13:53;;;;;;;1.95;0.65;;;3.10;99.90;;;;;;5099492;28;20086;-87
2022/01/26 03:16:28;;;;;;;4.20;1.85;;;3.10;99.90;;;;;;5116559;28;20399;-87
2022/01/26 03:28:07;;;;;;;0.68;0.45;;;3.10;99.90;;;;;;5038022;28;20061;-87
2022/01/26 03:30:03;;;;;;;1.42;1.30;;;3.00;99.90;;;;;;5038078;28;19920;-87
2022/01/26 03:35:19;;;;;;;6.18;0.73;;;3.10;99.90;;;;;;5037936;28;20059;-87
2022/01/26 03:37:54;;;;;;;1.55;1.08;;;3.10;99.90;;;;;;5037966;28;20048;-87
2022/01/26 03:40:29;;;;;;;0.70;0.70;;;3.00;99.90;;;;;;5037886;28;20110;-87
2022/01/26 03:42:55;;;;;;;6.75;1.13;;;3.00;99.90;;;;;;5037844;28;20044;-87
2022/01/26 03:45:20;;;;;;;0.75;0.75;;;3.00;99.90;;;;;;5021330;28;20049;-87
2022/01/26 03:47:46;;;;;;;0.60;0.50;;;3.00;99.90;;;;;;5021190;28;20049;-87
2022/01/26 03:50:12;;;;;;;0.45;0.45;;;3.00;99.90;;;;;;5037411;28;20045;-87
2022/01/26 03:52:38;;;;;;;1.13;1.08;;;3.00;99.90;;;;;;5020994;28;20092;-87
2022/01/26 03:55:04;;;;;;;4.53;1.95;;;3.00;99.90;;;;;;5036658;28;20448;-87
2022/01/26 03:57:30;;;;;;;0.82;0.70;;;3.00;99.90;;;;;;5021413;28;20056;-87
2022/01/26 03:59:56;;;;;;;5.18;0.68;;;3.00;99.90;;;;;;5098684;28;20133;-87
2022/01/26 04:02:22;;;;;;;4.95;1.38;;;3.00;99.90;;;;;;5098413;28;20044;-87
2022/01/26 04:04:53;;;;;;;1.85;0.77;;;3.00;99.90;;;;;;5116300;28;20043;-87
2022/01/26 04:07:19;;;;;;;1.25;0.63;;;3.10;99.90;;;;;;5116040;28;20087;-87
2022/01/26 04:09:45;;;;;;;3.15;1.42;;;3.00;99.90;;;;;;5115322;28;20106;-87
2022/01/26 04:12:11;;;;;;;8.05;2.28;;;3.00;99.90;;;;;;5115489;28;20050;-87
2022/01/26 04:14:37;;;;;;;1.75;1.15;;;3.00;99.90;;;;;;5098319;28;20395;-87
2022/01/26 04:17:03;;;;;;;1.42;1.33;;;3.00;99.90;;;;;;5098044;28;20138;-87
2022/01/26 04:19:31;;;;;;;1.92;1.90;;;2.90;99.90;;;;;;5098071;28;20151;-87
2022/01/26 04:24:33;;;;;;;4.50;1.00;;;2.90;99.90;;;;;;5116168;28;20047;-87
2022/01/26 04:27:04;;;;;;;2.25;1.17;;;2.90;99.90;;;;;;5098346;28;20044;-87
2022/01/26 04:29:32;;;;;;;0.10;0.10;;;2.90;99.90;;;;;;5098174;28;20072;-87
2022/01/26 04:32:00;;;;;;;2.08;1.42;;;2.90;99.90;;;;;;5098041;28;20437;-87
2022/01/26 04:34:26;;;;;;;0.47;0.47;;;3.00;99.90;;;;;;5097961;28;20047;-87
2022/01/26 04:39:48;;;;;;;3.03;0.60;;;2.90;99.90;;;;;;5036719;28;20184;-87
2022/01/26 04:42:25;;;;;;;3.08;1.13;;;3.00;99.90;;;;;;5019521;28;20114;-87
2022/01/26 04:44:58;;;;;;;8.15;3.08;;;2.80;99.90;;;;;;5019825;28;20056;-87
2022/01/26 04:47:24;;;;;;;0.85;0.52;;;2.70;99.90;;;;;;5020173;28;20045;-87
2022/01/26 04:49:49;;;;;;;16.50;2.60;;;2.70;99.90;;;;;;5036370;28;20045;-87
2022/01/26 04:52:15;;;;;;;1.75;1.58;;;2.70;99.90;;;;;;5019619;28;20076;-87
2022/01/26 04:54:41;;;;;;;1.75;1.38;;;2.70;99.90;;;;;;5019887;28;20048;-87
2022/01/26 04:57:07;;;;;;;7.22;2.38;;;2.70;99.90;;;;;;5019736;28;20061;-87
2022/01/26 04:59:32;;;;;;;0.70;0.70;;;2.70;99.90;;;;;;5019531;28;20485;-87
2022/01/26 05:01:58;;;;;;;1.30;0.45;;;2.70;99.90;;;;;;5019536;28;20041;-87
2022/01/26 05:04:24;;;;;;;1.10;0.70;;;2.70;99.90;;;;;;5020389;28;20060;-87
2022/01/26 05:06:50;;;;;;;1.88;1.77;;;2.70;99.90;;;;;;5035379;28;20045;-87
2022/01/26 05:09:16;;;;;;;1.27;0.55;;;2.90;99.90;;;;;;5019253;28;20060;-87
2022/01/26 05:11:43;;;;;;;0.43;0.40;;;2.70;99.90;;;;;;5035834;28;20049;-87
2022/01/26 05:14:10;;;;;;;1.63;1.48;;;2.70;99.90;;;;;;5019834;28;20048;-87
2022/01/26 05:16:36;;;;;;;2.25;0.55;;;2.70;99.90;;;;;;5071228;28;20460;-87
2022/01/26 05:19:02;;;;;;;0.80;0.77;;;2.80;99.90;;;;;;5097225;28;20047;-87
2022/01/26 05:21:29;;;;;;;0.68;0.68;;;2.70;99.90;;;;;;5097024;28;20043;-87
2022/01/26 05:23:55;;;;;;;0.30;0.30;;;2.70;99.90;;;;;;5113625;28;20075;-87
2022/01/26 05:26:21;;;;;;;7.75;1.75;;;2.70;99.90;;;;;;5113902;28;20040;-87
2022/01/26 05:28:47;;;;;;;15.27;2.50;;;2.70;99.90;;;;;;5097085;28;20051;-87
2022/01/26 05:31:13;;;;;;;4.70;0.75;;;2.70;99.90;;;;;;5095959;28;20063;-87
2022/01/26 05:33:39;;;;;;;0.60;0.60;;;2.70;99.90;;;;;;5114774;28;20043;-87
2022/01/26 05:36:05;;;;;;;1.05;0.80;;;2.70;99.90;;;;;;5113833;28;20100;-87
2022/01/26 05:38:31;;;;;;;0.20;0.13;;;2.70;99.90;;;;;;5113712;28;20054;-87
2022/01/26 05:41:01;;;;;;;1.02;0.63;;;2.70;99.90;;;;;;5097393;28;20402;-87
2022/01/26 05:43:30;;;;;;;8.65;1.00;;;2.70;99.90;;;;;;5113686;28;20044;-88
2022/01/26 05:46:00;;;;;;;1.35;0.63;;;2.80;99.90;;;;;;5113569;28;20046;-87
2022/01/26 05:48:26;;;;;;;0.38;0.38;;;2.80;99.90;;;;;;5113528;28;20043;-87
2022/01/26 05:50:54;;;;;;;2.20;0.60;;;2.80;99.90;;;;;;5096794;28;20097;-87
2022/01/26 05:53:23;;;;;;;4.22;2.22;;;2.80;99.90;;;;;;5096214;28;20043;-88
2022/01/26 05:55:50;;;;;;;0.98;0.73;;;2.80;99.90;;;;;;5096546;28;20054;-87
2022/01/26 05:58:16;;;;;;;2.67;1.42;;;2.80;99.90;;;;;;5113457;28;20060;-87
2022/01/26 06:00:42;;;;;;;0.00;0.00;;;2.80;99.90;;;;;;5112974;28;20074;-87
2022/01/26 06:03:08;;;;;;;1.08;0.93;;;2.70;99.90;;;;;;5096073;28;20044;-87
2022/01/26 06:05:33;;;;;;;3.17;1.88;;;2.70;99.90;;;;;;5096419;28;20445;-87
2022/01/26 06:07:59;;;;;;;0.30;0.30;;;2.70;99.90;;;;;;5097083;28;20035;-87
2022/01/26 06:10:25;;;;;;;3.13;1.75;;;2.70;99.90;;;;;;5113348;28;20051;-87
2022/01/26 06:12:52;;;;;;;0.90;0.90;;;2.70;99.90;;;;;;5096421;28;20039;-87
2022/01/26 06:15:19;;;;;;;1.02;0.80;;;2.70;99.90;;;;;;5096169;28;20039;-87
2022/01/26 06:17:45;;;;;;;0.57;0.57;;;2.70;99.90;;;;;;5112977;28;20081;-87
2022/01/26 06:20:11;;;;;;;0.75;0.55;;;2.60;99.90;;;;;;5096348;28;20383;-87
2022/01/26 06:22:38;;;;;;;3.67;0.82;;;2.70;99.90;;;;;;5095724;28;20448;-87
2022/01/26 06:25:06;;;;;;;2.38;0.85;;;2.70;99.90;;;;;;5096396;28;20047;-87
2022/01/26 06:27:33;;;;;;;0.90;0.75;;;2.70;99.90;;;;;;5096152;28;20039;-87
2022/01/26 06:29:59;;;;;;;1.58;1.48;;;2.80;99.90;;;;;;5113148;28;20063;-87
2022/01/26 06:32:24;;;;;;;1.33;1.23;;;2.70;99.90;;;;;;5112961;28;20051;-87
2022/01/26 06:34:50;;;;;;;0.85;0.82;;;2.70;99.90;;;;;;5096077;28;20497;-87
2022/01/26 06:37:16;;;;;;;0.63;0.63;;;2.70;99.90;;;;;;5095343;28;20094;-87
2022/01/26 06:39:42;;;;;;;7.70;2.78;;;2.70;99.90;;;;;;5112880;28;20045;-87
2022/01/26 06:42:13;;;;;;;0.28;0.25;;;2.70;99.90;;;;;;5095846;28;20386;-87
2022/01/26 06:45:17;;;;;;;1.13;0.82;;;2.70;99.90;;;;;;5095790;28;20115;-87
2022/01/26 06:47:49;;;;;;;3.83;1.50;;;2.80;99.90;;;;;;5108496;28;20399;-87
2022/01/26 06:50:15;;;;;;;2.90;0.98;;;2.70;99.90;;;;;;5096321;28;20097;-87
2022/01/26 06:52:43;;;;;;;2.05;1.00;;;2.70;99.90;;;;;;5112851;28;20036;-87
2022/01/26 06:55:10;;;;;;;2.53;0.52;;;2.70;99.90;;;;;;5112745;28;20570;-87
2022/01/26 06:57:35;;;;;;;0.85;0.85;;;2.80;99.90;;;;;;5095835;28;20039;-87
2022/01/26 07:00:02;;;;;;;1.35;0.80;;;2.80;99.90;;;;;;5112800;28;20093;-87
2022/01/26 07:02:27;;;;;;;1.15;0.40;;;2.80;99.90;;;;;;5095686;28;20487;-87
2022/01/26 07:04:53;;;;;;;2.63;0.35;;;2.80;99.90;;;;;;5112673;28;20139;-87
2022/01/26 07:07:19;;;;;;;15.25;1.70;;;2.80;99.90;;;;;;5095506;28;20083;-87
2022/01/26 07:09:44;;;;;;;0.30;0.30;;;2.80;99.90;;;;;;5112662;28;20073;-87
2022/01/26 07:12:10;;;;;;;8.73;1.30;;;2.80;99.90;;;;;;5096343;28;20044;-87
2022/01/26 07:22:34;;;;;;;4.20;0.68;;;2.80;99.90;;;;;;5112153;28;20113;-87
2022/01/26 07:25:00;;;;;;;5.13;0.22;;;2.80;99.90;;;;;;5112732;28;20055;-87
2022/01/26 07:27:25;;;;;;;4.28;0.93;;;2.80;99.90;;;;;;5112423;28;20050;-87
2022/01/26 07:29:51;;;;;;;0.75;0.75;;;2.80;99.90;;;;;;5114829;28;20043;-87
2022/01/26 07:32:17;;;;;;;0.70;0.70;;;2.90;99.90;;;;;;5099271;28;20528;-87
2022/01/26 07:34:44;;;;;;;0.77;0.75;;;2.80;99.90;;;;;;5099127;28;20084;-87
2022/01/26 07:37:13;;;;;;;1.00;0.90;;;2.80;99.90;;;;;;5098791;28;20130;-87
2022/01/26 07:39:49;;;;;;;0.77;0.77;;;3.80;99.90;;;;;;5115941;28;20043;-87
2022/01/26 07:42:15;;;;;;;1.88;0.82;;;3.30;99.90;;;;;;5099063;28;20092;-87
2022/01/26 07:44:41;;;;;;;1.65;1.60;;;3.40;99.90;;;;;;5116001;28;20031;-87
2022/01/26 07:47:07;;;;;;;5.10;1.40;;;3.00;99.90;;;;;;5098918;28;20043;-87
2022/01/26 07:49:33;;;;;;;2.20;1.40;;;3.90;99.90;;;;;;5098733;28;20479;-87
2022/01/26 07:51:59;;;;;;;1.30;0.82;;;2.90;99.90;;;;;;5098831;28;20050;-87
2022/01/26 07:54:25;;;;;;;0.55;0.55;;;2.90;99.90;;;;;;5115974;28;20051;-87
2022/01/26 07:56:51;;;;;;;1.05;0.90;;;3.00;99.90;;;;;;5116099;28;20109;-87
2022/01/26 07:59:16;;;;;;;4.85;1.42;;;2.90;99.90;;;;;;5098610;28;20168;-87
2022/01/26 08:01:42;;;;;;;0.40;0.40;;;2.90;99.90;;;;;;5098602;28;20391;-87
2022/01/26 08:04:08;;;;;;;0.57;0.32;;;3.40;99.90;;;;;;5115561;28;20048;-87
2022/01/26 08:06:34;;;;;;;1.30;1.20;;;3.40;99.90;;;;;;5098087;28;20052;-86
2022/01/26 08:09:00;;;;;;;3.17;0.85;;;2.90;99.90;;;;;;5098135;28;20098;-87
2022/01/26 08:11:26;;;;;;;5.28;1.45;;;2.90;99.90;;;;;;5115435;28;20087;-87
2022/01/26 08:13:52;;;;;;;0.85;0.50;;;2.90;99.90;;;;;;5098372;28;20097;-87
2022/01/26 08:16:18;;;;;;;2.30;0.98;;;2.90;99.90;;;;;;5098374;28;20040;-87
2022/01/26 08:18:44;;;;;;;1.48;1.38;;;3.50;99.90;;;;;;5098190;28;20042;-87
2022/01/26 08:21:10;;;;;;;8.65;1.45;;;3.80;99.90;;;;;;5114639;28;20444;-87
2022/01/26 08:23:37;;;;;;;3.22;1.85;;;3.10;99.90;;;;;;5098020;28;20055;-87
2022/01/26 08:26:03;;;;;;;17.63;2.63;;;3.00;99.90;;;;;;5115170;28;20112;-86
2022/01/26 08:28:39;;;;;;;0.63;0.63;;;3.00;99.90;;;;;;5098021;28;20043;-87
2022/01/26 08:31:05;;;;;;;2.05;1.20;;;3.00;99.90;;;;;;5115126;28;20108;-87
2022/01/26 08:33:31;;;;;;;1.65;1.17;;;3.00;99.90;;;;;;5097453;28;20047;-87
2022/01/26 08:35:57;;;;;;;0.88;0.65;;;3.10;99.90;;;;;;5097867;28;20054;-87
2022/01/26 08:38:23;;;;;;;1.65;1.42;;;3.10;99.90;;;;;;5097776;28;20185;-87
2022/01/26 08:40:49;;;;;;;5.55;2.92;;;3.30;99.90;;;;;;5114872;28;20487;-87
2022/01/26 08:43:15;;;;;;;0.52;0.52;;;3.00;99.90;;;;;;5097562;28;20183;-87
2022/01/26 08:45:42;;;;;;;0.88;0.70;;;3.10;99.90;;;;;;5114598;28;20047;-87
2022/01/26 08:48:08;;;;;;;4.32;0.77;;;3.10;99.90;;;;;;5114682;28;20044;-87
2022/01/26 08:50:34;;;;;;;1.77;0.77;;;3.10;99.90;;;;;;5114791;28;20044;-87
2022/01/26 08:53:00;;;;;;;13.20;2.90;;;3.90;99.90;;;;;;5097506;28;20039;-87
2022/01/26 08:55:26;;;;;;;3.10;1.75;;;3.10;99.90;;;;;;5097604;28;20094;-87
2022/01/26 08:57:52;;;;;;;1.55;1.20;;;3.20;99.90;;;;;;5097693;28;20040;-86
2022/01/26 09:00:18;;;;;;;2.67;2.47;;;3.20;99.90;;;;;;5097356;28;20043;-86
2022/01/26 09:02:44;;;;;;;5.05;1.17;;;3.20;99.90;;;;;;5097571;28;20046;-86
2022/01/26 09:05:10;;;;;;;4.50;1.85;;;3.20;99.90;;;;;;5097562;28;20044;-86
2022/01/26 09:07:36;;;;;;;3.53;1.48;;;3.20;99.90;;;;;;5097418;28;20053;-86
2022/01/26 09:10:05;;;;;;;6.65;2.22;;;3.20;99.90;;;;;;5097248;28;20043;-87
2022/01/26 09:12:33;;;;;;;1.38;1.27;;;3.20;99.90;;;;;;5114465;28;20130;-87
2022/01/26 09:15:03;;;;;;;2.45;1.38;;;4.50;99.90;;;;;;5096849;28;20487;-87
2022/01/26 09:17:31;;;;;;;9.25;1.50;;;3.30;99.90;;;;;;5096985;28;20039;-87
2022/01/26 09:20:00;;;;;;;2.22;2.10;;;3.30;99.90;;;;;;5097182;28;20058;-86
2022/01/26 09:22:26;;;;;;;11.18;2.05;;;3.40;99.90;;;;;;5096692;28;20071;-86
2022/01/26 09:24:52;;;;;;;7.95;3.40;;;3.30;99.90;;;;;;5097259;28;20054;-87
2022/01/26 09:27:18;;;;;;;4.55;3.90;;;3.40;99.90;;;;;;5097063;28;20052;-87
2022/01/26 09:29:45;;;;;;;2.88;2.63;;;3.30;99.90;;;;;;5096936;28;20055;-86
2022/01/26 09:32:13;;;;;;;1.63;1.52;;;4.50;99.90;;;;;;5096974;28;20096;-87
2022/01/26 09:34:39;;;;;;;1.45;1.13;;;4.50;99.90;;;;;;5113885;28;20486;-87
2022/01/26 09:37:06;;;;;;;4.00;2.17;;;3.40;99.90;;;;;;5096941;28;20086;-86
2022/01/26 09:39:33;;;;;;;11.50;2.67;;;3.60;99.90;;;;;;5096614;28;20047;-87
2022/01/26 09:42:00;;;;;;;1.55;1.48;;;3.40;99.90;;;;;;5096438;28;20043;-87
2022/01/26 09:44:26;;;;;;;1.45;1.20;;;3.40;99.90;;;;;;5096760;28;20044;-86
2022/01/26 09:46:52;;;;;;;3.20;1.65;;;3.50;99.90;;;;;;5096426;28;20051;-87
2022/01/26 09:49:18;;;;;;;3.92;2.40;;;3.40;99.90;;;;;;5096216;28;20061;-87
2022/01/26 09:51:49;;;;;;;5.75;2.15;;;3.40;99.90;;;;;;5096202;28;20071;-87
2022/01/26 09:54:17;;;;;;;4.75;1.73;;;3.50;99.90;;;;;;5113644;28;20051;-86
2022/01/26 09:56:49;;;;;;;2.28;1.42;;;3.60;99.90;;;;;;5096236;28;20399;-86
2022/01/26 09:59:16;;;;;;;2.05;1.58;;;3.50;99.90;;;;;;5113485;28;20491;-87
2022/01/26 10:01:48;;;;;;;10.32;5.40;;;3.50;99.90;;;;;;5096452;28;20169;-86
2022/01/26 10:04:36;;;;;;;1.83;1.70;;;3.50;99.90;;;;;;5096312;28;20100;-87
2022/01/26 10:10:02;;;;;;;2.55;1.90;;;3.60;99.90;;;;;;5113486;28;20058;-87
2022/01/26 10:18:11;;;;;;;5.00;2.83;;;3.60;99.90;;;;;;5113438;28;20044;-87
2022/01/26 10:20:45;;;;;;;3.75;1.75;;;3.60;99.90;;;;;;5113360;28;20113;-87
2022/01/26 10:23:17;;;;;;;1.63;1.52;;;3.70;99.90;;;;;;5095700;28;20410;-86
2022/01/26 10:25:46;;;;;;;2.35;1.80;;;3.70;99.90;;;;;;5096188;28;20044;-86
2022/01/26 10:28:14;;;;;;;12.15;2.70;;;3.70;99.90;;;;;;5095550;28;20059;-87
2022/01/26 10:30:45;;;;;;;11.98;1.92;;;3.70;99.90;;;;;;5095877;28;20043;-86
2022/01/26 10:33:12;;;;;;;2.03;1.88;;;3.70;99.90;;;;;;5096428;28;20066;-87
2022/01/26 10:35:38;;;;;;;6.13;1.33;;;3.90;99.90;;;;;;5095897;28;20067;-87
2022/01/26 10:38:04;;;;;;;6.63;2.33;;;4.00;99.90;;;;;;5095723;28;20391;-87
2022/01/26 10:40:31;;;;;;;7.30;3.38;;;3.80;99.90;;;;;;5113069;28;20052;-86
2022/01/26 10:43:03;;;;;;;2.70;2.25;;;3.80;99.90;;;;;;5095803;28;20047;-86
2022/01/26 10:48:24;;;;;;;2.78;2.10;;;3.90;99.90;;;;;;5113261;28;20384;-86
2022/01/26 10:51:32;;;;;;;4.03;1.30;;;4.30;99.90;;;;;;5095958;28;20059;-86
2022/01/26 10:54:04;;;;;;;1.88;1.80;;;3.90;99.90;;;;;;5112628;28;20048;-85
2022/01/26 10:56:29;;;;;;;9.05;2.63;;;4.10;99.90;;;;;;5113135;28;20124;-87
2022/01/26 10:58:58;;;;;;;1.65;1.55;;;4.00;99.90;;;;;;5112511;28;20444;-86
2022/01/26 11:01:24;;;;;;;4.70;3.35;;;4.00;99.90;;;;;;5095742;28;20079;-86
2022/01/26 11:03:49;;;;;;;8.35;2.80;;;4.00;99.90;;;;;;5095900;28;20152;-86
2022/01/26 11:06:19;;;;;;;2.35;1.33;;;4.00;99.90;;;;;;5116797;28;20049;-87
2022/01/26 11:08:46;;;;;;;3.20;1.42;;;4.10;99.90;;;;;;5116784;28;20048;-86
2022/01/26 11:11:23;;;;;;;3.03;1.15;;;4.10;99.90;;;;;;5099711;28;20398;-87
2022/01/26 11:13:49;;;;;;;2.05;1.17;;;4.20;99.90;;;;;;5116633;28;20047;-86
2022/01/26 11:16:20;;;;;;;4.13;2.25;;;4.10;99.90;;;;;;5116307;28;20039;-86
2022/01/26 11:18:47;;;;;;;2.03;1.27;;;4.20;99.90;;;;;;5098731;28;20494;-86
2022/01/26 11:21:34;;;;;;;0.65;0.60;;;4.20;99.90;;;;;;5099545;28;20063;-86
2022/01/26 11:24:08;;;;;;;1.48;1.38;;;4.20;99.90;;;;;;5098972;28;20055;-86
2022/01/26 11:26:34;;;;;;;3.03;1.93;;;4.20;99.90;;;;;;5099860;28;20047;-86
2022/01/26 11:29:00;;;;;;;10.45;4.93;;;4.20;99.90;;;;;;5099717;28;20293;-86
2022/01/26 11:31:27;;;;;;;3.38;1.58;;;5.70;99.90;;;;;;5099187;28;20383;-86
2022/01/26 11:33:54;;;;;;;2.60;2.03;;;4.30;99.90;;;;;;5099050;28;20139;-86
2022/01/26 11:36:21;;;;;;;1.20;0.80;;;4.30;99.90;;;;;;5116077;28;20134;-86
2022/01/26 11:47:25;;;;;;;1.70;1.65;;;4.30;99.90;;;;;;5115960;28;20087;-86
2022/01/26 11:50:02;;;;;;;3.70;1.85;;;4.30;99.90;;;;;;5116529;28;20422;-86
2022/01/26 11:52:35;;;;;;;8.63;2.25;;;4.30;99.90;;;;;;5116213;28;20051;-86
2022/01/26 11:55:04;;;;;;;0.60;0.47;;;4.40;99.90;;;;;;5116101;28;20039;-86
2022/01/26 11:57:49;;;;;;;1.60;1.50;;;4.40;99.90;;;;;;5098756;28;20050;-86
2022/01/26 12:00:22;;;;;;;34.67;2.65;;;4.40;99.90;;;;;;5098876;28;20510;-86
2022/01/26 12:05:21;;;;;;;2.88;2.58;;;4.40;99.90;;;;;;5115760;28;20043;-86
2022/01/26 12:07:51;;;;;;;6.13;3.38;;;4.50;99.90;;;;;;5098657;28;20062;-86
2022/01/26 12:10:29;;;;;;;4.75;0.50;;;4.40;99.90;;;;;;5098074;28;20499;-86
2022/01/26 12:13:12;;;;;;;2.88;2.60;;;4.50;99.90;;;;;;5115285;28;20085;-86
2022/01/26 12:15:54;;;;;;;1.67;1.17;;;4.50;99.90;;;;;;5115351;28;20043;-86
2022/01/26 12:18:30;;;;;;;5.47;2.33;;;4.50;99.90;;;;;;5115408;28;20046;-86
2022/01/26 12:35:49;;;;;;;11.15;2.20;;;4.60;99.90;;;;;;5115554;28;20197;-86
2022/01/26 12:38:31;;;;;;;1.52;1.42;;;4.50;99.90;;;;;;5098191;28;20043;-86
2022/01/26 12:43:48;;;;;;;2.17;1.98;;;5.30;99.90;;;;;;5114675;28;20043;-86
2022/01/26 12:46:17;;;;;;;1.60;0.75;;;4.60;99.90;;;;;;5115240;28;20048;-86
2022/01/26 12:48:53;;;;;;;2.58;2.38;;;4.60;99.90;;;;;;5097746;28;20044;-86
2022/01/26 12:51:19;;;;;;;1.17;1.08;;;4.60;99.90;;;;;;5097867;28;20047;-86
2022/01/26 12:53:51;;;;;;;3.00;2.75;;;5.10;99.90;;;;;;5114508;28;20506;-86
2022/01/26 12:56:17;;;;;;;4.03;1.65;;;4.60;99.90;;;;;;5098079;28;20557;-86
2022/01/26 12:58:44;;;;;;;1.23;1.17;;;5.00;99.90;;;;;;5097699;28;20060;-86
2022/01/26 13:01:14;;;;;;;5.80;1.95;;;5.00;99.90;;;;;;5097620;28;20044;-86
2022/01/26 13:03:41;;;;;;;0.73;0.70;;;4.70;99.90;;;;;;5114246;28;20479;-86
2022/01/26 13:06:24;;;;;;;3.53;2.15;;;4.80;99.90;;;;;;5114309;28;20047;-86
2022/01/26 13:08:53;;;;;;;1.38;1.30;;;4.80;99.90;;;;;;5097580;28;20047;-86
2022/01/26 13:11:23;;;;;;;1.70;1.05;;;4.80;99.90;;;;;;5097373;28;20438;-86
2022/01/26 13:13:49;;;;;;;0.93;0.93;;;4.80;99.90;;;;;;5097353;28;20051;-86
2022/01/26 13:16:19;;;;;;;1.65;0.85;;;4.80;99.90;;;;;;5114160;28;20047;-86
2022/01/26 13:24:53;;;;;;;5.43;0.63;;;5.70;99.90;;;;;;5035173;28;20068;-86
2022/01/26 13:27:33;;;;;;;1.80;0.57;;;4.70;99.90;;;;;;5035052;28;20496;-86
2022/01/26 13:35:49;;;;;;;5.43;0.63;;;4.70;99.90;;;;;;5035666;28;20110;-86
2022/01/26 13:49:29;;;;;;;4.50;1.98;;;4.80;99.90;;;;;;5035397;28;20191;-86
2022/01/26 13:59:29;;;;;;;9.70;1.98;;;4.80;99.90;;;;;;5035283;28;20070;-86
2022/01/26 14:01:55;;;;;;;1.15;1.05;;;4.80;99.90;;;;;;5082942;28;20052;-86
2022/01/26 14:04:20;;;;;;;7.72;1.95;;;4.80;99.90;;;;;;5095938;28;20046;-86
2022/01/26 14:06:47;;;;;;;1.27;1.17;;;4.80;99.90;;;;;;5096354;28;20048;-86
2022/01/26 14:09:14;;;;;;;1.52;1.42;;;4.80;99.90;;;;;;5096907;28;20499;-86
2022/01/26 14:11:40;;;;;;;4.88;1.48;;;4.80;99.90;;;;;;5113653;28;20039;-86
2022/01/26 14:14:08;;;;;;;2.13;0.55;;;5.00;99.90;;;;;;5113282;28;20039;-86
2022/01/26 14:16:39;;;;;;;4.72;1.38;;;5.00;99.90;;;;;;5095437;28;20097;-86
2022/01/26 14:26:45;;;;;;;1.73;1.63;;;4.80;99.90;;;;;;5113241;28;20039;-86
2022/01/26 14:29:31;;;;;;;17.30;1.10;;;4.80;99.90;;;;;;5095920;28;20497;-86
2022/01/26 14:32:13;;;;;;;0.47;0.47;;;4.80;99.90;;;;;;5113742;28;20051;-86
2022/01/26 15:40:33;;;;;;;2.63;0.75;;;4.90;99.90;;;;;;5016785;28;20049;-86
2022/01/26 15:50:52;;;;;;;4.68;1.13;;;5.00;99.90;;;;;;5050248;28;20531;-86
2022/01/26 16:20:20;;;;;;;1.75;0.57;;;5.00;99.90;;;;;;5116029;28;20055;-86
2022/01/26 18:17:30;;;;;;;3.10;2.05;;;5.10;99.90;;;;;;5113462;28;20051;-87
2022/01/26 18:39:06;;;;;;;5.90;1.70;;;5.10;99.90;;;;;;5109316;28;20040;-86
2022/01/26 18:49:32;;;;;;;0.68;0.68;;;5.10;99.90;;;;;;5112174;28;20040;-87
2022/01/26 18:51:59;;;;;;;1.02;1.02;;;5.20;99.90;;;;;;5095533;28;20134;-87
2022/01/26 18:54:31;;;;;;;3.53;1.55;;;5.20;99.90;;;;;;5096475;28;20055;-86
2022/01/26 18:57:00;;;;;;;2.67;0.55;;;5.50;99.90;;;;;;5095462;28;20055;-87
2022/01/26 18:59:26;;;;;;;0.68;0.40;;;5.50;99.90;;;;;;5094461;28;20050;-87
2022/01/26 19:01:55;;;;;;;1.10;1.05;;;5.20;99.90;;;;;;5094810;28;20074;-86
2022/01/26 19:04:27;;;;;;;2.55;1.30;;;6.20;99.90;;;;;;5112111;28;20044;-86
2022/01/26 19:06:53;;;;;;;0.93;0.52;;;5.20;99.90;;;;;;5112398;28;20063;-87
2022/01/26 19:09:24;;;;;;;1.45;0.80;;;5.20;99.90;;;;;;5094539;28;20062;-87
2022/01/26 19:11:50;;;;;;;3.20;1.35;;;5.30;99.90;;;;;;5095870;28;20040;-87
2022/01/26 19:14:16;;;;;;;0.55;0.55;;;5.80;99.90;;;;;;5095523;28;20176;-87
2022/01/26 19:16:51;;;;;;;1.83;0.90;;;5.20;99.90;;;;;;5094973;28;20093;-87
2022/01/26 19:24:59;;;;;;;0.40;0.40;;;5.50;99.90;;;;;;5009158;28;20467;-86
2022/01/26 19:27:37;;;;;;;1.00;0.70;;;5.20;99.90;;;;;;5018440;28;20512;-86
2022/01/26 19:51:22;;;;;;;6.13;2.08;;;5.20;99.90;;;;;;5018299;28;20131;-86
2022/01/26 19:53:47;;;;;;;0.57;0.57;;;5.20;99.90;;;;;;5001500;28;20144;-87
2022/01/26 19:56:14;;;;;;;0.75;0.75;;;5.20;99.90;;;;;;5036518;28;20630;-87
2022/01/26 19:58:39;;;;;;;1.60;0.40;;;5.20;99.90;;;;;;5095103;28;20043;-86
2022/01/26 20:01:05;;;;;;;2.25;1.50;;;5.20;99.90;;;;;;5078482;28;20063;-87
2022/01/26 20:03:34;;;;;;;6.07;2.17;;;5.30;99.90;;;;;;5077932;28;20369;-86
2022/01/26 20:06:00;;;;;;;2.40;1.17;;;5.20;99.90;;;;;;5078771;28;20044;-87
2022/01/26 20:08:35;;;;;;;3.72;2.05;;;5.30;99.90;;;;;;5078226;28;20127;-86
2022/01/26 20:11:07;;;;;;;0.52;0.52;;;5.20;99.90;;;;;;5078390;28;20048;-86
2022/01/26 20:13:39;;;;;;;4.43;0.82;;;5.20;99.90;;;;;;5078523;28;20462;-86
2022/01/26 20:16:05;;;;;;;1.70;0.57;;;5.20;99.90;;;;;;5078412;28;20079;-86
2022/01/26 20:18:32;;;;;;;2.78;1.55;;;5.20;99.90;;;;;;5078150;28;20075;-86
2022/01/26 20:20:59;;;;;;;4.93;1.98;;;5.20;99.90;;;;;;5078022;28;20044;-86
2022/01/26 20:23:32;;;;;;;1.38;1.27;;;5.20;99.90;;;;;;5077657;28;20097;-86
2022/01/26 20:26:00;;;;;;;1.13;1.13;;;5.30;99.90;;;;;;5094582;28;20479;-86
2022/01/26 20:28:29;;;;;;;1.23;0.70;;;5.80;99.90;;;;;;5094875;28;20055;-85